createdAt,value
2022-11-19T10:17:32.459Z,13.47
2022-11-19T10:18:32.467Z,13.41
2022-11-19T10:19:32.577Z,13.17
2022-11-19T10:20:32.547Z,13.03
2022-11-19T10:21:32.650Z,13.11
2022-11-19T10:22:33.618Z,13.17
2022-11-19T10:23:32.722Z,13.07
2022-11-19T10:24:32.747Z,13.20
2022-11-19T10:25:32.793Z,13.43
2022-11-19T10:26:32.900Z,13.59
2022-11-19T10:27:32.900Z,13.76
2022-11-19T10:28:32.955Z,13.88
2022-11-19T10:29:32.997Z,13.96
2022-11-19T10:30:33.037Z,13.88
2022-11-19T10:31:33.137Z,13.87
2022-11-19T10:32:33.174Z,13.83
2022-11-19T10:33:33.202Z,13.83
2022-11-19T10:34:33.254Z,13.59
2022-11-19T10:35:33.292Z,13.44
2022-11-19T10:36:33.352Z,13.46
2022-11-19T10:37:33.498Z,13.25
2022-11-19T10:38:33.453Z,13.06
2022-11-19T10:39:33.533Z,12.93
2022-11-19T10:40:33.603Z,12.79
2022-11-19T10:41:33.646Z,12.64
2022-11-19T10:42:33.656Z,12.64
2022-11-19T10:43:33.701Z,12.52
2022-11-19T10:44:33.748Z,12.54
2022-11-19T10:45:33.797Z,12.44
2022-11-19T10:46:33.877Z,12.41
2022-11-19T10:47:33.901Z,12.39
2022-11-19T10:48:33.955Z,12.48
2022-11-19T10:49:34.035Z,12.42
2022-11-19T10:50:34.133Z,12.39
2022-11-19T10:51:34.098Z,12.34
2022-11-19T10:52:39.994Z,12.37
2022-11-19T10:53:34.196Z,12.23
2022-11-19T10:54:34.251Z,12.19
2022-11-19T10:55:34.365Z,12.26
2022-11-19T10:56:34.692Z,12.29
2022-11-19T10:57:36.123Z,12.21
2022-11-19T10:58:35.152Z,12.24
2022-11-19T10:59:34.588Z,12.38
2022-11-19T11:00:35.179Z,12.29
2022-11-19T11:01:34.679Z,12.29
2022-11-19T11:02:34.657Z,12.11
2022-11-19T11:03:34.704Z,12.08
2022-11-19T11:04:34.723Z,12.02
2022-11-19T11:05:34.789Z,11.86
2022-11-19T11:06:34.986Z,11.62
2022-11-19T11:07:34.942Z,11.52
2022-11-19T11:08:41.670Z,11.52
2022-11-19T11:09:34.974Z,11.52
2022-11-19T11:10:35.013Z,11.56
2022-11-19T11:11:35.776Z,11.62
2022-11-19T11:12:35.253Z,11.68
2022-11-19T11:13:38.213Z,11.87
2022-11-19T11:14:35.236Z,11.94
2022-11-19T11:15:35.293Z,11.93
2022-11-19T11:16:37.880Z,11.96
2022-11-19T11:17:35.490Z,11.96
2022-11-19T11:18:40.165Z,11.90
2022-11-19T11:19:40.171Z,11.86
2022-11-19T11:20:35.564Z,11.83
2022-11-19T11:21:35.595Z,11.78
2022-11-19T11:22:35.588Z,11.74
2022-11-19T11:23:35.640Z,11.67
2022-11-19T11:24:35.714Z,11.71
2022-11-19T11:25:35.754Z,11.72
2022-11-19T11:26:35.846Z,11.82
2022-11-19T11:27:35.842Z,12.01
2022-11-19T11:28:36.650Z,12.06
2022-11-19T11:29:35.946Z,12.20
2022-11-19T11:30:36.033Z,12.21
2022-11-19T11:31:36.686Z,12.24
2022-11-19T11:32:36.092Z,12.29
2022-11-19T11:33:36.188Z,12.27
2022-11-19T11:34:36.181Z,12.16
2022-11-19T11:35:36.250Z,12.16
2022-11-19T11:36:36.271Z,12.15
2022-11-19T11:37:36.341Z,12.24
2022-11-19T11:38:36.389Z,12.26
2022-11-19T11:39:36.749Z,12.34
